createdAt,value
2017-04-09T00:00:05.088Z,12.79
2017-04-09T00:00:36.345Z,12.76
2017-04-09T00:00:58.109Z,12.68
2017-04-09T00:01:19.821Z,12.72
2017-04-09T00:01:41.539Z,12.82
2017-04-09T00:02:03.238Z,12.84
2017-04-09T00:02:25.107Z,12.94
2017-04-09T00:02:51.587Z,12.93
2017-04-09T00:03:13.288Z,12.92
2017-04-09T00:03:35.068Z,12.87
2017-04-09T00:03:56.773Z,12.86
2017-04-09T00:04:18.468Z,12.87
2017-04-09T00:04:45.016Z,12.82
2017-04-09T00:05:06.741Z,12.76
2017-04-09T00:05:37.986Z,12.74
2017-04-09T00:05:59.778Z,12.65
2017-04-09T00:06:31.030Z,12.72
2017-04-09T00:06:52.718Z,12.64
2017-04-09T00:07:24.037Z,12.53
2017-04-09T00:07:45.724Z,12.38
2017-04-09T00:08:07.423Z,12.32
2017-04-09T00:08:33.914Z,12.57
2017-04-09T00:08:55.691Z,12.65
2017-04-09T00:09:22.202Z,12.65
2017-04-09T00:09:43.927Z,12.60
2017-04-09T00:10:20.083Z,12.37
2017-04-09T00:10:42.411Z,12.43
2017-04-09T00:11:18.456Z,12.58
2017-04-09T00:11:40.677Z,12.57
2017-04-09T00:12:02.378Z,12.52
2017-04-09T00:12:28.877Z,12.55
2017-04-09T00:12:50.653Z,12.55
2017-04-09T00:13:21.908Z,12.53
2017-04-09T00:13:43.617Z,12.60
2017-04-09T00:14:05.402Z,12.58
2017-04-09T00:14:31.878Z,12.54
2017-04-09T00:14:53.591Z,12.52
2017-04-09T00:15:15.391Z,12.58
2017-04-09T00:15:37.107Z,12.59
2017-04-09T00:15:58.826Z,12.63
2017-04-09T00:16:25.368Z,12.59
2017-04-09T00:16:47.065Z,12.56
2017-04-09T00:17:13.543Z,12.61
2017-04-09T00:17:35.259Z,12.66
2017-04-09T00:18:01.812Z,12.79
2017-04-09T00:18:23.534Z,12.70
2017-04-09T00:18:50.020Z,12.66
2017-04-09T00:19:16.569Z,12.68
2017-04-09T00:19:38.271Z,12.65
2017-04-09T00:20:09.524Z,12.64
2017-04-09T00:20:31.355Z,12.63
2017-04-09T00:20:53.065Z,12.65
2017-04-09T00:21:19.533Z,12.63
2017-04-09T00:21:41.317Z,12.61
2017-04-09T00:22:03.030Z,12.53
2017-04-09T00:22:29.505Z,12.46
2017-04-09T00:22:51.197Z,12.39
2017-04-09T00:23:12.982Z,12.44
2017-04-09T00:23:34.695Z,12.46
2017-04-09T00:23:56.390Z,12.41
2017-04-09T00:24:22.938Z,12.55
2017-04-09T00:24:44.635Z,12.59
2017-04-09T00:25:06.345Z,12.59
2017-04-09T00:25:28.053Z,12.57
2017-04-09T00:25:49.822Z,12.54
2017-04-09T00:26:16.310Z,12.57
2017-04-09T00:26:38.001Z,12.56
2017-04-09T00:27:04.545Z,12.57
2017-04-09T00:27:26.258Z,12.63
2017-04-09T00:27:47.945Z,12.62
2017-04-09T00:28:14.492Z,12.64
2017-04-09T00:28:36.205Z,12.62
2017-04-09T00:29:07.450Z,12.63
2017-04-09T00:29:29.223Z,12.62
2017-04-09T00:29:55.699Z,12.50
2017-04-09T00:30:17.406Z,12.53
2017-04-09T00:30:43.953Z,12.60
2017-04-09T00:31:05.653Z,12.59
2017-04-09T00:31:27.367Z,12.57
2017-04-09T00:31:49.062Z,12.52
2017-04-09T00:32:10.853Z,12.51
2017-04-09T00:32:37.339Z,12.54
2017-04-09T00:32:59.029Z,12.49
2017-04-09T00:33:25.563Z,12.47
2017-04-09T00:33:47.270Z,12.50
2017-04-09T00:34:08.978Z,12.47
2017-04-09T00:34:35.512Z,12.46
2017-04-09T00:34:57.225Z,12.45
2017-04-09T00:35:28.470Z,12.46
2017-04-09T00:35:50.273Z,12.49
2017-04-09T00:36:21.556Z,12.39
2017-04-09T00:36:43.257Z,12.41
2017-04-09T00:37:09.803Z,12.42
2017-04-09T00:37:31.491Z,12.38
2017-04-09T00:37:53.205Z,12.38
2017-04-09T00:38:19.757Z,12.37
2017-04-09T00:38:41.460Z,12.35
2017-04-09T00:39:12.715Z,12.30
2017-04-09T00:39:34.548Z,12.29
2017-04-09T00:40:05.795Z,12.27
2017-04-09T00:40:27.512Z,12.24
2017-04-09T00:40:49.336Z,12.24
2017-04-09T00:41:20.696Z,12.33
2017-04-09T00:41:42.408Z,12.32
2017-04-09T00:42:13.732Z,12.36
2017-04-09T00:42:35.428Z,12.39
2017-04-09T00:42:57.129Z,12.38
2017-04-09T00:43:28.436Z,12.36
2017-04-09T00:43:50.135Z,12.43
2017-04-09T00:44:16.626Z,12.45
2017-04-09T00:44:38.350Z,12.42
2017-04-09T00:45:09.640Z,12.40
2017-04-09T00:45:31.359Z,12.44
2017-04-09T00:46:02.612Z,12.45
2017-04-09T00:46:24.390Z,12.45
2017-04-09T00:46:55.674Z,12.54
2017-04-09T00:47:17.347Z,12.56
2017-04-09T00:47:39.130Z,12.52
2017-04-09T00:48:10.384Z,12.54
2017-04-09T00:49:17.776Z,12.72
2017-04-09T00:49:39.482Z,12.78
2017-04-09T00:50:05.954Z,12.68
2017-04-09T00:50:27.647Z,12.62
2017-04-09T00:50:49.440Z,12.55
2017-04-09T00:51:11.179Z,12.51
2017-04-09T00:51:32.879Z,12.53
2017-04-09T00:51:54.590Z,12.46
2017-04-09T00:52:16.389Z,12.45
2017-04-09T00:52:38.088Z,12.46
2017-04-09T00:52:59.809Z,12.50
2017-04-09T00:53:31.164Z,12.58
2017-04-09T00:53:52.888Z,12.59
2017-04-09T00:54:14.600Z,12.61
2017-04-09T00:54:36.305Z,12.61
2017-04-09T00:54:58.094Z,12.61
2017-04-09T00:55:29.347Z,12.47
2017-04-09T00:55:51.050Z,12.41
2017-04-09T00:56:12.872Z,12.42
2017-04-09T00:56:48.913Z,12.51
2017-04-09T00:57:11.204Z,12.50
2017-04-09T00:57:47.238Z,12.42
2017-04-09T00:58:09.650Z,12.51
2017-04-09T00:58:40.917Z,12.47
2017-04-09T00:59:02.727Z,12.42
2017-04-09T00:59:38.756Z,12.53
2017-04-09T01:00:01.089Z,12.61
2017-04-09T01:01:06.491Z,12.60
2017-04-09T01:01:32.971Z,12.56
2017-04-09T01:01:54.688Z,12.49
2017-04-09T01:02:16.398Z,12.43
2017-04-09T01:02:42.864Z,12.31
2017-04-09T01:03:04.559Z,12.33
2017-04-09T01:03:26.265Z,12.33
2017-04-09T01:03:57.605Z,12.28
2017-04-09T01:04:19.301Z,12.25
2017-04-09T01:04:41.015Z,12.28
2017-04-09T01:05:02.717Z,12.33
2017-04-09T01:05:24.491Z,12.31
2017-04-09T01:05:50.987Z,12.20
2017-04-09T01:06:12.717Z,12.24
2017-04-09T01:06:34.469Z,12.21
2017-04-09T01:07:01.046Z,12.08
2017-04-09T01:07:22.750Z,12.17
2017-04-09T01:07:44.464Z,12.14
2017-04-09T01:08:11.030Z,12.16
2017-04-09T01:08:32.735Z,12.21
2017-04-09T01:08:54.444Z,12.25
2017-04-09T01:09:20.930Z,12.09
2017-04-09T01:09:42.718Z,11.96
2017-04-09T01:10:04.448Z,11.91
2017-04-09T01:10:30.941Z,11.88
2017-04-09T01:10:52.638Z,12.04
2017-04-09T01:11:14.441Z,11.90
2017-04-09T01:11:45.690Z,11.80
2017-04-09T01:12:07.376Z,11.90
2017-04-09T01:12:29.084Z,12.00
2017-04-09T01:12:55.559Z,12.13
2017-04-09T01:13:17.271Z,12.12
2017-04-09T01:13:38.999Z,12.08
2017-04-09T01:14:00.797Z,12.00
2017-04-09T01:14:22.507Z,12.06
2017-04-09T01:14:53.760Z,12.10
2017-04-09T01:15:15.541Z,12.12
2017-04-09T01:15:42.019Z,12.16
2017-04-09T01:16:03.739Z,12.21
2017-04-09T01:16:30.310Z,12.21
2017-04-09T01:16:52.044Z,12.21
2017-04-09T01:17:18.518Z,12.12
2017-04-09T01:17:40.306Z,12.07
2017-04-09T01:18:06.776Z,12.14
2017-04-09T01:18:28.479Z,12.21
2017-04-09T01:18:55.060Z,12.20
2017-04-09T01:19:26.320Z,12.15
2017-04-09T01:19:48.014Z,12.08
2017-04-09T01:20:09.810Z,12.14
2017-04-09T01:20:36.304Z,12.08
2017-04-09T01:20:57.995Z,12.14
2017-04-09T01:21:19.793Z,12.11
2017-04-09T01:21:41.510Z,12.05
2017-04-09T01:22:03.235Z,12.00
2017-04-09T01:22:24.926Z,12.01
2017-04-09T01:22:46.705Z,12.03
2017-04-09T01:23:08.407Z,12.07
2017-04-09T01:23:44.440Z,12.10
2017-04-09T01:24:06.780Z,12.09
2017-04-09T01:24:42.812Z,12.15
2017-04-09T01:25:05.019Z,12.13
2017-04-09T01:25:41.060Z,12.11
2017-04-09T01:26:03.436Z,12.09
2017-04-09T01:26:34.702Z,12.05
2017-04-09T01:26:56.475Z,12.07
2017-04-09T01:27:27.734Z,12.10
2017-04-09T01:27:54.220Z,12.14
2017-04-09T01:28:20.761Z,12.14
2017-04-09T01:28:42.457Z,12.17
2017-04-09T01:29:04.159Z,12.11
2017-04-09T01:29:35.495Z,12.13
2017-04-09T01:29:57.186Z,12.19
2017-04-09T01:30:18.893Z,12.17
2017-04-09T01:30:50.236Z,12.20
2017-04-09T01:31:11.942Z,12.12
2017-04-09T01:31:38.409Z,12.01
2017-04-09T01:32:00.106Z,11.96
2017-04-09T01:32:36.144Z,11.92
2017-04-09T01:32:58.506Z,11.95
2017-04-09T01:33:24.986Z,11.91
2017-04-09T01:33:56.332Z,11.87
2017-04-09T01:34:18.030Z,11.89
2017-04-09T01:34:39.730Z,11.89
2017-04-09T01:35:06.286Z,11.87
2017-04-09T01:35:27.989Z,11.82
2017-04-09T01:35:54.460Z,11.82
2017-04-09T01:36:20.943Z,11.87
2017-04-09T01:36:42.750Z,11.85
2017-04-09T01:37:04.440Z,11.95
2017-04-09T01:37:26.160Z,11.91
2017-04-09T01:37:47.877Z,11.87
2017-04-09T01:38:09.683Z,11.85
2017-04-09T01:38:31.378Z,11.93
2017-04-09T01:38:57.867Z,11.93
2017-04-09T01:39:19.667Z,11.95
2017-04-09T01:39:55.700Z,12.10
2017-04-09T01:40:17.996Z,12.15
2017-04-09T01:40:44.573Z,11.97
2017-04-09T01:41:06.281Z,11.89
2017-04-09T01:41:27.978Z,11.76
2017-04-09T01:41:54.457Z,11.71
2017-04-09T01:42:16.248Z,11.83
2017-04-09T01:42:37.981Z,11.96
2017-04-09T01:42:59.680Z,12.02
2017-04-09T01:43:21.401Z,12.04
2017-04-09T01:43:57.429Z,11.91
2017-04-09T01:44:19.786Z,11.90
2017-04-09T01:44:55.815Z,11.83
2017-04-09T01:45:18.050Z,11.80
2017-04-09T01:46:20.569Z,11.82
2017-04-09T01:46:42.356Z,11.83
2017-04-09T01:47:04.051Z,11.85
2017-04-09T01:47:40.115Z,11.84
2017-04-09T01:48:02.470Z,11.82
2017-04-09T01:48:24.193Z,11.83
2017-04-09T01:48:55.443Z,11.72
2017-04-09T01:49:17.246Z,11.77
2017-04-09T01:49:38.945Z,11.85
2017-04-09T01:50:00.643Z,11.90
2017-04-09T01:50:22.337Z,11.90
2017-04-09T01:50:44.179Z,11.77
2017-04-09T01:51:10.670Z,11.79
2017-04-09T01:51:32.374Z,11.77
2017-04-09T01:52:03.730Z,11.77
2017-04-09T01:52:25.418Z,11.71
2017-04-09T01:52:47.144Z,11.76
2017-04-09T01:53:23.179Z,11.79
2017-04-09T01:53:45.560Z,11.73
2017-04-09T01:54:12.042Z,11.83
2017-04-09T01:54:33.737Z,11.95
2017-04-09T01:54:55.432Z,11.98
2017-04-09T01:55:21.929Z,11.93
2017-04-09T01:55:43.638Z,11.92
2017-04-09T01:56:14.961Z,11.98
2017-04-09T01:56:36.656Z,11.93
2017-04-09T01:56:58.359Z,11.89
2017-04-09T01:57:20.080Z,11.91
2017-04-09T01:57:41.869Z,11.92
2017-04-09T01:58:03.582Z,11.98
2017-04-09T01:58:30.052Z,11.94
2017-04-09T01:58:51.839Z,11.90
2017-04-09T01:59:13.548Z,12.04
2017-04-09T01:59:40.028Z,11.99
2017-04-09T02:00:01.749Z,11.73
2017-04-09T02:00:28.231Z,11.48
2017-04-09T02:00:49.924Z,11.50
2017-04-09T02:01:11.714Z,11.46
2017-04-09T02:01:33.425Z,11.36
2017-04-09T02:01:55.120Z,11.27
2017-04-09T02:02:21.593Z,11.26
2017-04-09T02:02:43.315Z,11.26
2017-04-09T02:03:09.779Z,11.31
2017-04-09T02:03:31.511Z,11.28
2017-04-09T02:03:57.988Z,11.41
2017-04-09T02:04:19.690Z,11.46
2017-04-09T02:04:41.390Z,11.48
2017-04-09T02:05:03.090Z,11.49
2017-04-09T02:05:24.794Z,11.49
2017-04-09T02:05:46.496Z,11.53
2017-04-09T02:06:12.973Z,11.52
2017-04-09T02:06:34.683Z,11.59
2017-04-09T02:06:56.387Z,11.70
2017-04-09T02:07:18.092Z,11.75
2017-04-09T02:07:39.875Z,11.67
2017-04-09T02:08:01.597Z,11.61
2017-04-09T02:08:28.066Z,11.53
2017-04-09T02:08:49.763Z,11.62
2017-04-09T02:09:11.468Z,11.55
2017-04-09T02:09:33.171Z,11.56
2017-04-09T02:09:54.873Z,11.56
2017-04-09T02:10:30.895Z,11.66
2017-04-09T02:10:53.207Z,11.57
2017-04-09T02:11:14.907Z,11.66
2017-04-09T02:11:46.165Z,11.71
2017-04-09T02:12:07.874Z,11.67
2017-04-09T02:12:34.353Z,11.77
2017-04-09T02:12:56.060Z,11.79
2017-04-09T02:13:22.540Z,11.84
2017-04-09T02:13:44.265Z,11.75
2017-04-09T02:14:20.298Z,11.44
2017-04-09T02:14:42.600Z,11.33
2017-04-09T02:15:49.984Z,11.35
2017-04-09T02:16:11.706Z,11.39
2017-04-09T02:16:33.411Z,11.45
2017-04-09T02:17:04.664Z,11.60
2017-04-09T02:17:26.393Z,11.74
2017-04-09T02:17:52.869Z,11.69
2017-04-09T02:18:14.568Z,11.74
2017-04-09T02:18:36.279Z,11.88
2017-04-09T02:19:38.793Z,11.89
2017-04-09T02:20:10.043Z,11.87
2017-04-09T02:20:31.752Z,11.79
2017-04-09T02:21:03.013Z,11.64
2017-04-09T02:21:24.737Z,11.63
2017-04-09T02:21:55.994Z,11.70
2017-04-09T02:22:17.734Z,11.76
2017-04-09T02:22:39.439Z,11.79
2017-04-09T02:23:10.700Z,11.71
2017-04-09T02:23:32.389Z,11.74
2017-04-09T02:23:54.101Z,11.83
2017-04-09T02:25:01.378Z,11.76
2017-04-09T02:25:23.079Z,11.76
2017-04-09T02:25:44.781Z,11.71
2017-04-09T02:26:16.037Z,11.68
2017-04-09T02:26:37.728Z,11.74
2017-04-09T02:27:13.763Z,11.59
2017-04-09T02:27:36.036Z,11.53
2017-04-09T02:28:02.509Z,11.58
2017-04-09T02:28:38.549Z,11.56
2017-04-09T02:29:00.931Z,11.43
2017-04-09T02:29:27.428Z,11.24
2017-04-09T02:30:03.465Z,11.22
2017-04-09T02:30:25.829Z,11.12
2017-04-09T02:30:47.548Z,11.21
2017-04-09T02:31:18.803Z,11.41
2017-04-09T02:31:40.489Z,11.43
2017-04-09T02:32:02.308Z,11.26
2017-04-09T02:32:28.793Z,11.07
2017-04-09T02:32:50.505Z,10.89
2017-04-09T02:33:12.204Z,10.69
2017-04-09T02:33:38.760Z,10.71
2017-04-09T02:34:00.578Z,10.91
2017-04-09T02:34:36.602Z,11.06
2017-04-09T02:34:58.863Z,11.05
2017-04-09T02:35:20.577Z,11.21
2017-04-09T02:35:42.297Z,11.07
2017-04-09T02:36:03.994Z,11.02
2017-04-09T02:36:25.690Z,10.99
2017-04-09T02:37:28.194Z,11.15
2017-04-09T02:37:49.891Z,11.19
2017-04-09T02:38:21.143Z,11.22
2017-04-09T02:38:42.844Z,11.20
2017-04-09T02:39:04.542Z,11.17
2017-04-09T02:39:31.009Z,11.14
2017-04-09T02:39:52.811Z,11.04
2017-04-09T02:40:14.509Z,11.01
2017-04-09T02:40:36.213Z,11.09
2017-04-09T02:40:57.898Z,11.14
2017-04-09T02:41:29.188Z,11.24
2017-04-09T02:41:50.882Z,11.27
2017-04-09T02:42:17.359Z,11.43
2017-04-09T02:42:39.057Z,11.43
2017-04-09T02:43:41.553Z,11.16
2017-04-09T02:44:03.251Z,11.13
2017-04-09T02:44:24.951Z,11.18
2017-04-09T02:44:46.675Z,11.17
2017-04-09T02:45:08.409Z,11.25
2017-04-09T02:45:34.914Z,11.32
2017-04-09T02:45:56.610Z,11.32
2017-04-09T02:46:18.303Z,11.38
2017-04-09T02:46:44.770Z,11.44
2017-04-09T02:47:06.554Z,11.51
2017-04-09T02:47:33.036Z,11.47
2017-04-09T02:47:54.728Z,11.31
2017-04-09T02:48:16.571Z,11.24
2017-04-09T02:49:19.046Z,11.27
2017-04-09T02:49:45.548Z,11.40
2017-04-09T02:50:07.277Z,11.53
2017-04-09T02:50:33.759Z,11.60
2017-04-09T02:50:55.468Z,11.55
2017-04-09T02:52:02.845Z,11.25
2017-04-09T02:52:24.541Z,11.22
2017-04-09T02:52:55.786Z,11.13
2017-04-09T02:53:17.509Z,11.18
2017-04-09T02:53:39.220Z,11.26
2017-04-09T02:54:00.932Z,11.25
2017-04-09T02:54:22.725Z,11.28
2017-04-09T02:54:49.206Z,11.34
2017-04-09T02:55:10.908Z,11.26
2017-04-09T02:55:37.475Z,11.17
2017-04-09T02:55:59.177Z,11.27
2017-04-09T02:56:25.644Z,11.27
2017-04-09T02:56:47.342Z,11.23
2017-04-09T02:57:09.062Z,11.24
2017-04-09T02:57:35.537Z,11.22
2017-04-09T02:57:57.244Z,11.22
2017-04-09T02:58:28.505Z,11.25
2017-04-09T02:58:50.223Z,11.27
2017-04-09T02:59:16.718Z,11.42
2017-04-09T02:59:38.418Z,11.48
2017-04-09T03:00:00.153Z,11.37
2017-04-09T03:00:21.933Z,11.38
2017-04-09T03:00:43.633Z,11.44
2017-04-09T03:01:05.338Z,11.49
2017-04-09T03:01:27.071Z,11.38
2017-04-09T03:01:48.766Z,11.35
2017-04-09T03:02:10.468Z,11.46
2017-04-09T03:02:41.713Z,11.47
2017-04-09T03:03:03.425Z,11.47
2017-04-09T03:03:29.895Z,11.44
2017-04-09T03:03:51.674Z,11.35
2017-04-09T03:04:13.378Z,11.31
2017-04-09T03:04:35.079Z,11.35
2017-04-09T03:04:56.882Z,11.15
2017-04-09T03:05:18.595Z,10.99
2017-04-09T03:05:45.077Z,10.95
2017-04-09T03:06:06.782Z,11.00
2017-04-09T03:06:38.050Z,11.05
2017-04-09T03:06:59.737Z,11.05
2017-04-09T03:07:30.988Z,11.08
2017-04-09T03:07:52.689Z,11.18
2017-04-09T03:08:51.022Z,11.10
2017-04-09T03:09:27.057Z,11.22
2017-04-09T03:09:49.359Z,11.32
2017-04-09T03:10:51.862Z,11.30
2017-04-09T03:11:13.553Z,11.24
2017-04-09T03:11:35.283Z,11.23
2017-04-09T03:12:37.870Z,11.21
2017-04-09T03:12:59.660Z,11.17
2017-04-09T03:14:07.024Z,11.39
2017-04-09T03:14:28.738Z,11.36
2017-04-09T03:15:04.758Z,11.39
2017-04-09T03:15:27.140Z,11.35
2017-04-09T03:15:48.864Z,11.34
2017-04-09T03:16:24.894Z,11.31
2017-04-09T03:16:49.967Z,11.39
2017-04-09T03:17:26.002Z,11.36
2017-04-09T03:17:48.311Z,11.30
2017-04-09T03:18:19.665Z,11.25
2017-04-09T03:18:41.371Z,11.18
2017-04-09T03:19:03.077Z,11.14
2017-04-09T03:19:24.779Z,11.17
2017-04-09T03:19:46.574Z,11.17
2017-04-09T03:20:08.281Z,11.15
2017-04-09T03:20:30.040Z,11.17
2017-04-09T03:20:51.750Z,11.23
2017-04-09T03:21:13.535Z,11.26
2017-04-09T03:21:44.796Z,11.20
2017-04-09T03:22:06.484Z,11.05
2017-04-09T03:23:09.085Z,11.00
2017-04-09T03:23:30.796Z,11.07
2017-04-09T03:23:57.278Z,11.10
2017-04-09T03:24:19.081Z,11.16
2017-04-09T03:24:40.783Z,11.20
2017-04-09T03:25:07.267Z,11.17
2017-04-09T03:25:28.962Z,11.09
2017-04-09T03:26:00.219Z,11.20
2017-04-09T03:26:21.933Z,11.28
2017-04-09T03:26:43.642Z,11.17
2017-04-09T03:27:10.113Z,11.21
2017-04-09T03:27:31.925Z,11.29
2017-04-09T03:27:58.409Z,11.31
2017-04-09T03:28:20.113Z,11.31
2017-04-09T03:28:41.902Z,11.38
2017-04-09T03:29:13.159Z,11.36
2017-04-09T03:29:34.863Z,11.33
2017-04-09T03:30:06.205Z,11.21
2017-04-09T03:30:27.894Z,11.23
2017-04-09T03:30:54.381Z,11.26
2017-04-09T03:31:16.095Z,11.34
2017-04-09T03:31:37.894Z,11.36
2017-04-09T03:32:04.371Z,11.30
2017-04-09T03:32:26.062Z,11.25
2017-04-09T03:32:47.881Z,11.20
2017-04-09T03:33:09.580Z,11.27
2017-04-09T03:33:31.279Z,11.07
2017-04-09T03:33:53.007Z,10.80
2017-04-09T03:34:19.618Z,10.59
2017-04-09T03:34:41.349Z,10.46
2017-04-09T03:35:17.374Z,10.47
2017-04-09T03:35:39.721Z,10.62
2017-04-09T03:36:01.420Z,10.66
2017-04-09T03:37:08.800Z,10.77
2017-04-09T03:37:30.509Z,10.67
2017-04-09T03:38:01.761Z,10.76
2017-04-09T03:38:23.548Z,10.88
2017-04-09T03:38:45.269Z,10.80
2017-04-09T03:39:06.974Z,10.74
2017-04-09T03:39:38.223Z,10.90
2017-04-09T03:39:59.924Z,11.02
2017-04-09T03:40:26.437Z,10.97
2017-04-09T03:40:57.724Z,10.99
2017-04-09T03:41:19.433Z,10.98
2017-04-09T03:41:41.171Z,10.95
2017-04-09T03:42:07.637Z,10.95
2017-04-09T03:42:29.422Z,10.81
2017-04-09T03:43:00.689Z,10.51
2017-04-09T03:43:22.392Z,10.41
2017-04-09T03:43:58.417Z,10.58
2017-04-09T03:44:20.766Z,10.54
2017-04-09T03:44:42.466Z,10.60
2017-04-09T03:45:04.164Z,10.56
2017-04-09T03:45:30.721Z,10.54
2017-04-09T03:45:52.419Z,10.61
2017-04-09T03:46:14.118Z,10.64
2017-04-09T03:46:35.818Z,10.56
2017-04-09T03:46:57.671Z,10.50
2017-04-09T03:47:19.373Z,10.39
2017-04-09T03:47:41.082Z,10.42
2017-04-09T03:48:02.775Z,10.50
2017-04-09T03:48:29.333Z,10.52
2017-04-09T03:48:51.026Z,10.61
2017-04-09T03:49:12.741Z,10.68
2017-04-09T03:49:44.083Z,10.70
2017-04-09T03:50:05.770Z,10.71
2017-04-09T03:50:32.252Z,10.59
2017-04-09T03:50:53.952Z,10.48
2017-04-09T03:51:29.983Z,10.61
2017-04-09T03:51:52.383Z,10.67
2017-04-09T03:52:18.860Z,10.63
2017-04-09T03:52:45.338Z,10.74
2017-04-09T03:53:07.130Z,10.74
2017-04-09T03:53:28.838Z,10.66
2017-04-09T03:53:55.325Z,10.65
2017-04-09T03:54:17.111Z,10.55
2017-04-09T03:54:53.139Z,10.68
2017-04-09T03:55:15.445Z,10.63
2017-04-09T03:55:46.785Z,10.50
2017-04-09T03:56:08.470Z,10.49
2017-04-09T03:56:30.169Z,10.57
2017-04-09T03:56:51.867Z,10.53
2017-04-09T03:57:13.625Z,10.55
2017-04-09T03:57:35.337Z,10.60
2017-04-09T03:58:11.358Z,10.62
2017-04-09T03:58:33.702Z,10.51
2017-04-09T03:58:55.395Z,10.47
2017-04-09T03:59:26.644Z,10.43
2017-04-09T03:59:48.434Z,10.45
2017-04-09T04:00:10.125Z,10.41
2017-04-09T04:00:31.834Z,10.50
2017-04-09T04:00:53.530Z,10.41
2017-04-09T04:01:15.373Z,10.52
2017-04-09T04:01:37.083Z,10.55
2017-04-09T04:01:58.796Z,10.50
2017-04-09T04:02:20.509Z,10.58
2017-04-09T04:02:42.302Z,10.67
2017-04-09T04:03:04.074Z,10.56
2017-04-09T04:03:25.770Z,10.45
2017-04-09T04:03:47.465Z,10.52
2017-04-09T04:04:09.258Z,10.39
2017-04-09T04:04:30.952Z,10.30
2017-04-09T04:05:06.975Z,10.50
2017-04-09T04:05:29.329Z,10.45
2017-04-09T04:05:51.038Z,10.48
2017-04-09T04:06:12.738Z,10.52
2017-04-09T04:06:34.449Z,10.39
2017-04-09T04:06:56.167Z,10.47
2017-04-09T04:07:22.634Z,10.54
2017-04-09T04:07:44.330Z,10.51
2017-04-09T04:08:06.110Z,10.63
2017-04-09T04:08:27.817Z,10.63
2017-04-09T04:08:49.520Z,10.56
2017-04-09T04:09:16.087Z,10.61
2017-04-09T04:09:37.816Z,10.61
2017-04-09T04:10:49.969Z,10.45
2017-04-09T04:11:16.434Z,10.49
2017-04-09T04:11:38.137Z,10.35
2017-04-09T04:12:09.480Z,10.33
2017-04-09T04:12:31.179Z,10.42
2017-04-09T04:13:02.437Z,10.39
2017-04-09T04:13:24.256Z,10.39
2017-04-09T04:14:26.747Z,10.59
2017-04-09T04:14:48.545Z,10.62
2017-04-09T04:15:15.022Z,10.65
2017-04-09T04:15:36.722Z,10.56
2017-04-09T04:15:58.528Z,10.54
2017-04-09T04:16:25.001Z,10.50
2017-04-09T04:16:46.714Z,10.54
2017-04-09T04:17:08.426Z,10.64
2017-04-09T04:17:35.003Z,10.56
2017-04-09T04:17:56.710Z,10.35
2017-04-09T04:18:18.460Z,10.43
2017-04-09T04:18:44.990Z,10.42
2017-04-09T04:19:06.705Z,10.32
2017-04-09T04:19:28.408Z,10.32
2017-04-09T04:19:50.113Z,10.44
2017-04-09T04:20:11.943Z,10.51
2017-04-09T04:20:43.213Z,10.46
2017-04-09T04:21:04.909Z,10.53
2017-04-09T04:21:31.496Z,10.53
2017-04-09T04:21:53.201Z,10.63
2017-04-09T04:22:14.909Z,10.59
2017-04-09T04:22:41.473Z,10.58
2017-04-09T04:23:03.159Z,10.53
2017-04-09T04:24:05.754Z,10.31
2017-04-09T04:24:27.558Z,10.40
2017-04-09T04:25:30.059Z,10.33
2017-04-09T04:25:56.543Z,10.42
2017-04-09T04:26:18.339Z,10.31
2017-04-09T04:26:40.037Z,10.27
2017-04-09T04:27:11.285Z,10.30
2017-04-09T04:27:32.985Z,10.48
2017-04-09T04:27:59.458Z,10.50
2017-04-09T04:28:21.150Z,10.64
2017-04-09T04:28:47.629Z,10.58
2017-04-09T04:29:09.366Z,10.53
2017-04-09T04:29:35.950Z,10.48
2017-04-09T04:29:57.660Z,10.41
2017-04-09T04:30:19.367Z,10.34
2017-04-09T04:31:26.672Z,10.59
2017-04-09T04:31:48.385Z,10.65
2017-04-09T04:32:10.086Z,10.58
2017-04-09T04:32:36.574Z,10.62
2017-04-09T04:32:58.268Z,10.61
2017-04-09T04:33:20.063Z,10.66
2017-04-09T04:33:41.761Z,10.60
2017-04-09T04:34:03.462Z,10.49
2017-04-09T04:34:29.981Z,10.40
2017-04-09T04:34:51.766Z,10.37
2017-04-09T04:35:18.251Z,10.37
2017-04-09T04:35:39.946Z,10.39
2017-04-09T04:36:01.657Z,10.48
2017-04-09T04:36:28.130Z,10.52
2017-04-09T04:36:49.915Z,10.58
2017-04-09T04:37:21.170Z,10.62
2017-04-09T04:37:42.869Z,10.63
2017-04-09T04:38:04.579Z,10.62
2017-04-09T04:38:31.064Z,10.60
2017-04-09T04:38:52.953Z,10.36
2017-04-09T04:39:55.537Z,9.75
2017-04-09T04:40:26.783Z,9.94
2017-04-09T04:40:48.590Z,10.01
2017-04-09T04:41:15.068Z,10.12
2017-04-09T04:41:36.853Z,10.22
2017-04-09T04:41:58.651Z,10.20
2017-04-09T04:42:25.119Z,10.28
2017-04-09T04:42:46.809Z,10.38
2017-04-09T04:43:18.075Z,10.51
2017-04-09T04:43:39.883Z,10.61
2017-04-09T04:44:01.574Z,10.63
2017-04-09T04:44:23.283Z,10.54
2017-04-09T04:44:44.966Z,10.43
2017-04-09T04:45:06.670Z,10.31
2017-04-09T04:45:33.154Z,10.22
2017-04-09T04:45:54.949Z,10.32
2017-04-09T04:46:26.198Z,10.30
2017-04-09T04:46:47.910Z,10.33
2017-04-09T04:47:19.184Z,10.35
2017-04-09T04:47:40.969Z,10.30
2017-04-09T04:48:12.228Z,10.27
2017-04-09T04:48:33.944Z,10.27
2017-04-09T04:49:41.214Z,10.02
2017-04-09T04:50:02.919Z,9.92
2017-04-09T04:50:24.718Z,9.91
2017-04-09T04:50:55.966Z,9.94
2017-04-09T04:51:17.665Z,10.07
2017-04-09T04:51:39.367Z,10.13
2017-04-09T04:52:01.164Z,10.05
2017-04-09T04:52:22.876Z,10.07
2017-04-09T04:52:44.583Z,9.94
2017-04-09T04:53:47.080Z,10.06
2017-04-09T04:54:23.104Z,10.11
2017-04-09T04:54:45.373Z,10.12
2017-04-09T04:55:16.634Z,10.11
2017-04-09T04:55:38.416Z,10.28
2017-04-09T04:56:41.835Z,10.36
2017-04-09T04:57:49.123Z,10.29
2017-04-09T04:58:15.591Z,10.24
2017-04-09T04:58:37.286Z,10.22
2017-04-09T04:59:03.846Z,10.21
2017-04-09T04:59:25.539Z,10.18
2017-04-09T04:59:47.340Z,10.11
2017-04-09T05:00:09.051Z,10.14
2017-04-09T05:00:30.756Z,10.26
2017-04-09T05:00:52.462Z,10.21
2017-04-09T05:01:19.034Z,10.24
2017-04-09T05:01:40.738Z,10.22
2017-04-09T05:02:07.210Z,10.18
2017-04-09T05:02:28.907Z,10.17
2017-04-09T05:02:50.607Z,10.20
2017-04-09T05:03:12.299Z,10.30
2017-04-09T05:03:33.997Z,10.31
2017-04-09T05:04:41.299Z,10.45
2017-04-09T05:05:02.965Z,10.40
2017-04-09T05:05:24.670Z,10.37
2017-04-09T05:05:46.373Z,10.33
2017-04-09T05:06:08.059Z,10.24
2017-04-09T05:06:29.770Z,10.23
2017-04-09T05:06:51.478Z,10.36
2017-04-09T05:07:13.180Z,10.29
2017-04-09T05:07:44.419Z,10.35
2017-04-09T05:08:06.109Z,10.48
2017-04-09T05:08:27.815Z,10.52
2017-04-09T05:08:49.507Z,10.54
2017-04-09T05:09:11.227Z,10.46
2017-04-09T05:09:37.701Z,10.47
2017-04-09T05:09:59.389Z,10.46
2017-04-09T05:10:30.642Z,10.36
2017-04-09T05:10:52.354Z,10.34
2017-04-09T05:11:23.600Z,10.46
2017-04-09T05:11:45.298Z,10.38
2017-04-09T05:12:06.990Z,10.39
2017-04-09T05:12:33.462Z,10.39
2017-04-09T05:12:55.154Z,10.37
2017-04-09T05:13:16.990Z,10.35
2017-04-09T05:13:43.463Z,10.25
2017-04-09T05:14:05.288Z,10.12
2017-04-09T05:14:31.809Z,10.20
2017-04-09T05:14:53.509Z,10.25
2017-04-09T05:15:19.982Z,10.27
2017-04-09T05:15:41.678Z,10.29
2017-04-09T05:16:03.378Z,10.30
2017-04-09T05:16:25.078Z,10.28
2017-04-09T05:16:46.774Z,10.27
2017-04-09T05:17:18.023Z,10.33
2017-04-09T05:17:39.718Z,10.26
2017-04-09T05:18:06.198Z,10.27
2017-04-09T05:18:27.893Z,10.26
2017-04-09T05:18:49.607Z,10.29
2017-04-09T05:19:16.078Z,10.29
2017-04-09T05:19:37.787Z,10.39
2017-04-09T05:20:09.040Z,10.39
2017-04-09T05:20:30.754Z,10.35
2017-04-09T05:21:01.999Z,10.34
2017-04-09T05:21:23.691Z,10.31
2017-04-09T05:21:45.397Z,10.30
2017-04-09T05:22:17.680Z,10.32
2017-04-09T05:22:39.397Z,10.34
2017-04-09T05:23:10.648Z,10.52
2017-04-09T05:23:32.347Z,10.57
2017-04-09T05:23:54.036Z,10.60
2017-04-09T05:24:15.745Z,10.70
2017-04-09T05:24:37.466Z,10.66
2017-04-09T05:25:03.938Z,10.61
2017-04-09T05:25:25.665Z,10.54
2017-04-09T05:25:47.371Z,10.48
2017-04-09T05:26:49.871Z,10.40
2017-04-09T05:27:16.358Z,10.34
2017-04-09T05:28:18.860Z,10.11
2017-04-09T05:28:40.565Z,10.06
2017-04-09T05:29:07.043Z,10.02
2017-04-09T05:30:09.552Z,10.24
2017-04-09T05:30:36.139Z,10.27
2017-04-09T05:31:02.617Z,10.36
2017-04-09T05:31:24.377Z,10.35
2017-04-09T05:31:50.860Z,10.29
2017-04-09T05:32:12.578Z,10.37